Terminal Aerodrome Forecast
Issued by NWS Twin Cities, MN

Home | Current Version | Previous Version | Text Only | Print | Product List | Glossary On
Versions: 1 2 3 4 5 6 7 8 9 10 11 12 13 14 15 16 17 18 19 20 21
000
FTUS43 KMPX 272300
TAFMSP
TAF
KMSP 272326Z 2800/2906 23006KT P6SM SKC
     FM280300 23005KT P6SM SCT070
     FM281200 33004KT P6SM SCT015 BKN025
     FM282200 36007KT P6SM SKC=

USA.gov is the U.S. government's official web portal to all federal, state and local government web resources and services.